createdAt,value
2023-03-06T00:17:47.619Z,3.2
2023-03-06T00:48:04.457Z,3.1
2023-03-06T01:18:21.460Z,2.9
2023-03-06T01:48:39.502Z,3.7
2023-03-06T02:18:55.627Z,4.5
2023-03-06T02:49:13.024Z,3.6
2023-03-06T03:19:30.001Z,4.6
2023-03-06T03:49:48.742Z,3.9
2023-03-06T04:20:06.302Z,4.4
2023-03-06T04:50:22.657Z,4.7
2023-03-06T05:20:40.786Z,4.8
2023-03-06T05:50:58.653Z,5.5
2023-03-06T06:21:19.955Z,5.4
2023-03-06T06:51:37.976Z,7.4
2023-03-06T07:52:18.683Z,7.2
2023-03-06T08:22:39.544Z,7.8
2023-03-06T08:53:01.633Z,8.7
2023-03-06T09:23:18.410Z,7.8
2023-03-06T09:53:37.895Z,6.5
2023-03-06T10:23:58.246Z,7.1
2023-03-06T10:54:20.436Z,6.3
2023-03-06T11:24:51.829Z,5.9
2023-03-06T11:54:59.296Z,6.4
2023-03-06T12:25:29.222Z,8.6
2023-03-06T12:55:35.010Z,8.8
2023-03-06T13:25:44.287Z,7.3
2023-03-06T13:56:00.664Z,7.1
2023-03-06T14:26:19.484Z,5.7
2023-03-06T14:56:35.247Z,5.5
2023-03-06T15:26:51.826Z,5
2023-03-06T15:57:07.017Z,6.3
2023-03-06T16:27:21.579Z,5.4
2023-03-06T16:57:43.968Z,4.4
2023-03-06T17:28:01.955Z,4.9
2023-03-06T17:58:16.387Z,5
2023-03-06T18:28:31.705Z,6.1
2023-03-06T18:58:48.659Z,7.4
2023-03-06T19:29:05.967Z,7.7
2023-03-06T19:59:23.830Z,9.7
2023-03-06T20:29:40.650Z,8.4
2023-03-06T20:59:57.261Z,8.6
2023-03-06T21:30:14.285Z,10.3
2023-03-06T22:00:31.591Z,9.8
2023-03-06T22:30:51.524Z,9.4
2023-03-06T23:01:10.648Z,9.9
2023-03-06T23:31:32.513Z,11.5
